Time;durP1;ratioP1;P1;durP2;ratioP2;P2;SDS_P1;SDS_P2;PMS_P1;PMS_P2;Temp;Humidity;BMP_temperature;BMP_pressure;BME280_temperature;BME280_humidity;BME280_pressure;Samples;Min_cycle;Max_cycle;Signal;HPM_P1;HPM_P2
2023/12/11 00:00:46;;;;;;;0.40;0.38;;;;;;;16.58;42.43;92429.09;5010841;28;20043;-92
2023/12/11 00:03:12;;;;;;;1.15;0.55;;;;;;;16.58;42.42;92423.66;5027049;28;20036;-92
2023/12/11 00:05:41;;;;;;;0.20;0.20;;;;;;;16.56;42.65;92420.72;5008650;28;20056;-93
2023/12/11 00:08:07;;;;;;;0.60;0.30;;;;;;;16.62;42.34;92413.91;5011282;28;20032;-92
2023/12/11 00:10:32;;;;;;;0.65;0.47;;;;;;;16.50;42.74;92412.63;4995768;28;20051;-92
2023/12/11 00:12:58;;;;;;;0.50;0.43;;;;;;;16.56;42.66;92409.78;5008937;28;20111;-93
2023/12/11 00:15:23;;;;;;;0.65;0.30;;;;;;;16.54;42.42;92409.59;5006204;28;20914;-93
2023/12/11 00:17:49;;;;;;;0.32;0.30;;;;;;;16.59;42.86;92406.03;4991864;28;20074;-92
2023/12/11 00:20:15;;;;;;;1.08;0.50;;;;;;;16.57;42.77;92403.09;4992752;28;20024;-93
2023/12/11 00:22:40;;;;;;;0.73;0.40;;;;;;;16.59;42.36;92397.84;5008751;28;20127;-92
2023/12/11 00:25:06;;;;;;;0.68;0.45;;;;;;;16.54;42.76;92387.75;4965021;28;20044;-92
2023/12/11 00:27:31;;;;;;;0.65;0.30;;;;;;;16.50;42.70;92368.22;4956926;28;20731;-92
2023/12/11 00:29:58;;;;;;;0.55;0.32;;;;;;;16.58;42.43;92342.53;4965967;28;21363;-92
2023/12/11 00:32:23;;;;;;;0.32;0.30;;;;;;;16.53;42.75;92342.63;4970277;28;20051;-92
2023/12/11 00:34:50;;;;;;;0.98;0.43;;;;;;;16.50;42.78;92335.50;4976468;28;20053;-92
2023/12/11 00:37:16;;;;;;;0.70;0.30;;;;;;;16.55;42.58;92329.22;4944847;28;20101;-93
2023/12/11 00:39:41;;;;;;;0.45;0.30;;;;;;;16.58;42.49;92356.19;4944314;28;20041;-92
2023/12/11 00:42:07;;;;;;;0.70;0.40;;;;;;;16.57;42.49;92354.72;4946333;28;20041;-92
2023/12/11 00:44:32;;;;;;;0.40;0.30;;;;;;;16.56;42.41;92364.16;4947172;28;20076;-93
2023/12/11 00:46:59;;;;;;;0.68;0.30;;;;;;;16.54;42.67;92371.38;4950974;28;20652;-93
2023/12/11 00:49:24;;;;;;;0.82;0.60;;;;;;;16.59;42.30;92354.91;4920693;28;20050;-92
2023/12/11 00:51:52;;;;;;;0.38;0.30;;;;;;;16.60;42.74;92369.31;4955297;28;20056;-92
2023/12/11 00:54:18;;;;;;;0.60;0.40;;;;;;;16.59;42.51;92365.09;4964896;28;20052;-92
2023/12/11 00:56:43;;;;;;;0.70;0.40;;;;;;;16.58;42.57;92377.28;4972535;28;20076;-91
2023/12/11 00:59:09;;;;;;;0.70;0.30;;;;;;;16.61;42.48;92382.41;4966009;28;20767;-92
2023/12/11 01:01:34;;;;;;;0.80;0.38;;;;;;;16.62;42.43;92372.25;4928044;28;20090;-92
2023/12/11 01:04:00;;;;;;;1.00;0.45;;;;;;;16.62;42.21;92396.78;4948457;28;20068;-93
2023/12/11 01:06:25;;;;;;;0.82;0.52;;;;;;;16.65;42.16;92409.44;4939511;28;20767;-93
2023/12/11 01:08:51;;;;;;;0.80;0.30;;;;;;;16.68;42.20;92419.28;4935149;28;20155;-92
2023/12/11 01:11:16;;;;;;;0.60;0.32;;;;;;;16.57;42.50;92425.66;4891636;28;20635;-93
2023/12/11 01:13:42;;;;;;;0.30;0.30;;;;;;;16.60;42.30;92429.31;4877211;28;20357;-92
2023/12/11 01:16:07;;;;;;;0.55;0.30;;;;;;;16.60;42.37;92449.16;4878484;28;20145;-92
2023/12/11 01:18:34;;;;;;;2.10;0.68;;;;;;;16.59;42.63;92460.59;4885753;28;20350;-92
2023/12/11 01:20:59;;;;;;;1.50;0.40;;;;;;;16.64;42.54;92473.44;4886083;28;20027;-92
2023/12/11 01:23:25;;;;;;;0.43;0.30;;;;;;;16.64;42.07;92473.44;4899923;28;20019;-93
2023/12/11 01:25:50;;;;;;;0.28;0.20;;;;;;;16.61;42.49;92469.72;4916568;28;20148;-94
2023/12/11 01:28:16;;;;;;;1.27;0.30;;;;;;;16.65;42.34;92477.66;4967418;28;20073;-92
2023/12/11 01:30:41;;;;;;;1.10;0.60;;;;;;;16.59;42.58;92485.88;4996643;28;20044;-93
2023/12/11 01:33:07;;;;;;;0.93;0.40;;;;;;;16.64;42.45;92496.00;4989526;28;20075;-91
2023/12/11 01:35:34;;;;;;;0.47;0.30;;;;;;;16.53;42.63;92493.41;4991434;28;20350;-91
2023/12/11 01:37:59;;;;;;;0.30;0.30;;;;;;;16.59;42.36;92493.34;4966146;28;20046;-91
2023/12/11 01:40:25;;;;;;;0.40;0.30;;;;;;;16.57;42.73;92485.66;4942906;28;20594;-91
2023/12/11 01:42:51;;;;;;;0.50;0.30;;;;;;;16.59;42.63;92493.34;4961596;28;21226;-91
2023/12/11 01:45:16;;;;;;;0.57;0.40;;;;;;;16.57;42.67;92484.94;4944258;28;20041;-91
2023/12/11 01:47:42;;;;;;;0.98;0.50;;;;;;;16.57;42.57;92477.47;4911214;28;20104;-91
2023/12/11 01:50:08;;;;;;;0.47;0.30;;;;;;;16.63;42.17;92467.25;4911663;28;20053;-91
2023/12/11 01:52:34;;;;;;;0.75;0.50;;;;;;;16.52;42.59;92481.03;4928819;28;20073;-91
2023/12/11 01:54:59;;;;;;;0.47;0.32;;;;;;;16.61;42.63;92477.19;4929599;28;20045;-91
2023/12/11 01:57:25;;;;;;;0.90;0.40;;;;;;;16.63;42.69;92480.13;4924036;28;20082;-93
2023/12/11 01:59:50;;;;;;;1.25;0.30;;;;;;;16.65;42.32;92478.38;4909022;28;20112;-91
2023/12/11 02:02:16;;;;;;;0.45;0.30;;;;;;;16.55;42.73;92474.53;4893572;28;20085;-91
2023/12/11 02:04:42;;;;;;;0.47;0.40;;;;;;;16.58;42.43;92467.31;4892426;28;20042;-91
2023/12/11 02:07:07;;;;;;;0.82;0.40;;;;;;;16.58;42.70;92478.22;4919044;28;20057;-91
2023/12/11 02:09:33;;;;;;;0.32;0.20;;;;;;;16.54;42.68;92477.78;4933600;28;20133;-91
2023/12/11 02:11:58;;;;;;;0.70;0.30;;;;;;;16.57;42.47;92474.75;4904203;28;20586;-91
2023/12/11 02:14:24;;;;;;;0.30;0.20;;;;;;;16.56;42.31;92459.63;4883202;28;20337;-91
2023/12/11 02:16:49;;;;;;;0.22;0.22;;;;;;;16.53;42.81;92466.13;4902102;28;20109;-90
2023/12/11 02:19:15;;;;;;;0.70;0.30;;;;;;;16.54;42.55;92461.41;4911936;28;20037;-90
2023/12/11 02:21:40;;;;;;;0.40;0.30;;;;;;;16.54;42.42;92473.06;4896464;28;20041;-91
2023/12/11 02:24:10;;;;;;;0.63;0.40;;;;;;;16.61;42.22;92480.66;4898937;28;20862;-91
2023/12/11 02:26:35;;;;;;;1.45;0.45;;;;;;;16.54;42.62;92478.53;4900616;28;20179;-91
2023/12/11 02:29:01;;;;;;;0.40;0.40;;;;;;;16.58;42.45;92483.69;4894934;28;20057;-90
2023/12/11 02:31:26;;;;;;;0.55;0.30;;;;;;;16.62;42.47;92490.31;4895415;28;20050;-90
2023/12/11 02:33:52;;;;;;;0.20;0.20;;;;;;;16.65;42.20;92492.03;4909253;28;20128;-91
2023/12/11 02:36:17;;;;;;;1.20;0.50;;;;;;;16.63;42.40;92489.06;4966319;28;20458;-91
2023/12/11 02:38:42;;;;;;;0.22;0.20;;;;;;;16.56;42.57;92486.19;4949928;28;20049;-92
2023/12/11 02:41:08;;;;;;;0.50;0.38;;;;;;;16.56;42.50;92478.75;4956571;28;20101;-91
2023/12/11 02:43:34;;;;;;;0.40;0.40;;;;;;;16.61;42.29;92471.72;4996571;28;20040;-91
2023/12/11 02:45:59;;;;;;;0.40;0.40;;;;;;;16.63;42.47;92478.16;4985925;28;21248;-92
2023/12/11 02:48:25;;;;;;;0.40;0.40;;;;;;;16.57;42.52;92469.28;4987318;28;20109;-91
2023/12/11 02:50:50;;;;;;;0.73;0.30;;;;;;;16.54;42.64;92467.59;5007828;28;20040;-92
2023/12/11 02:53:16;;;;;;;0.60;0.38;;;;;;;16.57;42.31;92460.38;5005183;28;20043;-91
2023/12/11 02:55:41;;;;;;;0.55;0.38;;;;;;;16.57;42.32;92444.75;4987212;28;20513;-91
2023/12/11 02:58:07;;;;;;;0.20;0.20;;;;;;;16.58;42.47;92435.31;5005556;28;20116;-90
2023/12/11 03:00:32;;;;;;;0.40;0.30;;;;;;;16.57;42.42;92431.09;4990153;28;20044;-91
2023/12/11 03:02:59;;;;;;;1.05;0.40;;;;;;;16.56;42.76;92429.63;4988382;28;20040;-91
2023/12/11 03:05:24;;;;;;;0.52;0.20;;;;;;;16.54;42.48;92415.78;4988938;28;20043;-90
2023/12/11 03:07:50;;;;;;;0.28;0.25;;;;;;;16.58;42.34;92399.09;5024218;28;20036;-92
2023/12/11 03:10:15;;;;;;;0.20;0.20;;;;;;;16.60;42.44;92397.31;5005619;28;20040;-91
2023/12/11 03:12:41;;;;;;;1.17;0.40;;;;;;;16.53;42.75;92375.38;4972433;28;20466;-92
2023/12/11 03:15:07;;;;;;;0.85;0.25;;;;;;;16.46;42.89;92374.00;4976746;28;20124;-91
2023/12/11 03:17:33;;;;;;;0.22;0.22;;;;;;;16.54;42.58;92358.47;4978692;28;20048;-91
2023/12/11 03:20:01;;;;;;;0.20;0.20;;;;;;;16.54;42.56;92363.19;5012990;28;20024;-91
2023/12/11 03:22:26;;;;;;;0.85;0.40;;;;;;;16.55;42.71;92364.66;4990265;28;20197;-91
2023/12/11 03:24:53;;;;;;;0.40;0.40;;;;;;;16.56;42.77;92385.25;4991952;28;20509;-92
2023/12/11 03:27:21;;;;;;;0.22;0.20;;;;;;;16.48;42.87;92390.56;4991528;28;20032;-91
2023/12/11 03:29:50;;;;;;;0.30;0.30;;;;;;;16.54;42.46;92390.47;5003743;28;20272;-90
2023/12/11 03:32:15;;;;;;;0.57;0.40;;;;;;;16.52;42.99;92393.72;5005792;28;20528;-91
2023/12/11 03:34:41;;;;;;;0.65;0.38;;;;;;;16.55;42.75;92408.31;4999770;28;20045;-91
2023/12/11 03:37:06;;;;;;;0.77;0.30;;;;;;;16.57;42.89;92403.81;4991533;28;20144;-92
2023/12/11 03:39:32;;;;;;;0.52;0.30;;;;;;;16.57;42.85;92400.34;5011756;28;20066;-91
2023/12/11 03:41:58;;;;;;;0.30;0.30;;;;;;;16.54;42.45;92410.31;4994710;28;20486;-91
2023/12/11 03:44:24;;;;;;;0.45;0.20;;;;;;;16.57;42.77;92414.72;4981604;28;20067;-91
2023/12/11 03:46:49;;;;;;;0.52;0.25;;;;;;;16.60;42.26;92408.22;4979537;28;20111;-91
2023/12/11 03:49:16;;;;;;;0.30;0.30;;;;;;;16.62;42.29;92403.00;4995568;28;20258;-91
2023/12/11 03:51:45;;;;;;;0.35;0.30;;;;;;;16.53;42.43;92397.19;4995547;28;20081;-90
2023/12/11 03:54:10;;;;;;;0.40;0.30;;;;;;;16.57;42.86;92400.34;5002057;28;20095;-91
2023/12/11 03:56:36;;;;;;;0.93;0.30;;;;;;;16.51;42.51;92392.25;5007326;28;20036;-91
2023/12/11 03:59:01;;;;;;;0.45;0.40;;;;;;;16.49;42.71;92397.50;5014562;28;20024;-91
2023/12/11 04:01:28;;;;;;;0.40;0.30;;;;;;;16.57;42.23;92405.81;5016539;28;20501;-90
2023/12/11 04:03:54;;;;;;;0.30;0.30;;;;;;;16.51;42.74;92408.63;5022003;28;20040;-91
2023/12/11 04:06:19;;;;;;;0.88;0.40;;;;;;;16.55;42.61;92425.44;5020645;28;20558;-91
2023/12/11 04:08:45;;;;;;;0.30;0.20;;;;;;;16.52;42.76;92434.66;5035929;28;20035;-91
2023/12/11 04:11:10;;;;;;;0.60;0.30;;;;;;;16.52;42.74;92442.84;5012172;28;20024;-90
2023/12/11 04:13:36;;;;;;;0.32;0.30;;;;;;;16.50;42.66;92450.81;5008844;28;20051;-90
2023/12/11 04:16:03;;;;;;;1.17;0.57;;;;;;;16.58;42.62;92448.22;4989842;28;20122;-92
2023/12/11 04:18:29;;;;;;;0.40;0.30;;;;;;;16.60;42.69;92456.59;5011020;28;20065;-91
2023/12/11 04:20:55;;;;;;;0.55;0.30;;;;;;;16.50;43.04;92450.81;4998454;28;20485;-92
2023/12/11 04:23:20;;;;;;;3.08;0.25;;;;;;;16.47;42.73;92457.28;4990987;28;20164;-91
2023/12/11 04:25:46;;;;;;;0.65;0.35;;;;;;;16.59;42.63;92466.78;5026178;28;20237;-91
2023/12/11 04:28:11;;;;;;;0.50;0.30;;;;;;;16.58;42.52;92475.50;5003032;28;20131;-91
2023/12/11 04:30:37;;;;;;;0.90;0.40;;;;;;;16.54;42.68;92477.78;5007236;28;20106;-90
2023/12/11 04:33:02;;;;;;;2.10;0.50;;;;;;;16.53;42.50;92489.94;4987285;28;20284;-91
2023/12/11 04:35:28;;;;;;;17.83;1.38;;;;;;;16.60;42.85;92489.34;5002476;28;20729;-89
2023/12/11 04:37:53;;;;;;;0.45;0.25;;;;;;;16.57;42.54;92482.94;5026445;28;20044;-91
2023/12/11 04:40:19;;;;;;;1.30;0.70;;;;;;;16.55;43.11;92480.00;5014902;28;20028;-87
2023/12/11 04:42:44;;;;;;;18.98;8.43;;;;;;;16.62;43.22;92473.94;5011805;28;20047;-87
2023/12/11 04:45:10;;;;;;;7.20;3.00;;;;;;;16.67;42.60;92469.69;4995376;28;20040;-91
2023/12/11 04:47:35;;;;;;;6.30;3.20;;;;;;;16.58;42.62;92470.78;4983461;28;20052;-93
2023/12/11 04:50:01;;;;;;;4.20;1.77;;;;;;;16.56;42.72;92462.38;4978232;28;20064;-91
2023/12/11 04:52:26;;;;;;;34.38;15.13;;;;;;;16.63;42.58;92471.94;4991626;28;20131;-89
2023/12/11 04:54:57;;;;;;;13.38;3.03;;;;;;;16.60;42.57;92475.72;4972941;28;20044;-92
2023/12/11 04:57:23;;;;;;;7.60;2.38;;;;;;;16.40;42.52;92471.56;4973896;28;20040;-88
2023/12/11 04:59:49;;;;;;;9.30;2.20;;;;;;;16.22;42.18;92475.06;4986434;28;21395;-90
2023/12/11 05:02:15;;;;;;;16.02;2.53;;;;;;;16.11;42.81;92478.69;4993217;28;20047;-92
2023/12/11 05:04:40;;;;;;;21.10;9.02;;;;;;;16.09;42.29;92470.28;4994136;28;21570;-94
2023/12/11 05:07:06;;;;;;;30.27;8.32;;;;;;;15.97;42.59;92482.63;4995325;28;20520;-91
2023/12/11 05:09:31;;;;;;;36.20;14.02;;;;;;;15.90;42.82;92467.59;5005337;28;21272;-91
2023/12/11 05:11:58;;;;;;;31.02;16.85;;;;;;;15.77;43.01;92465.56;4977310;28;20032;-92
2023/12/11 05:14:24;;;;;;;37.47;16.80;;;;;;;15.67;43.20;92474.59;4971866;28;20251;-92
2023/12/11 05:16:49;;;;;;;26.95;10.23;;;;;;;15.65;43.07;92485.28;4976929;28;20141;-92
2023/12/11 05:19:15;;;;;;;26.42;6.97;;;;;;;15.67;43.47;92478.06;4991244;28;20050;-92
2023/12/11 05:21:44;;;;;;;8.70;4.00;;;;;;;15.64;43.39;92486.53;4995382;28;20442;-91
2023/12/11 05:24:10;;;;;;;5.88;2.78;;;;;;;15.65;43.25;92488.00;5017230;28;20121;-93
2023/12/11 05:26:36;;;;;;;11.75;3.30;;;;;;;15.62;43.24;92487.03;5019802;28;20046;-94
2023/12/11 05:29:04;;;;;;;12.52;4.03;;;;;;;15.75;43.18;92486.38;5009702;28;20048;-93
2023/12/11 05:31:31;;;;;;;81.60;14.13;;;;;;;15.87;43.15;92482.25;5027859;28;20035;-92
2023/12/11 05:33:58;;;;;;;110.75;39.22;;;;;;;15.76;43.22;92485.13;5054946;28;20139;-92
2023/12/11 05:36:28;;;;;;;302.92;119.38;;;;;;;15.78;43.30;92488.09;5051389;28;20696;-96
2023/12/11 05:39:02;;;;;;;77.93;22.35;;;;;;;15.87;43.17;92503.31;5016246;28;20387;-96
2023/12/11 05:41:27;;;;;;;81.70;24.88;;;;;;;15.91;43.46;92511.94;5053452;28;20454;-90
2023/12/11 05:43:53;;;;;;;51.42;18.83;;;;;;;15.96;43.31;92517.31;5017641;28;20138;-92
2023/12/11 05:46:19;;;;;;;57.85;18.58;;;;;;;16.08;43.04;92504.25;5013681;28;20388;-90
2023/12/11 05:48:44;;;;;;;71.20;32.80;;;;;;;16.07;43.51;92503.53;4991432;28;20070;-90
2023/12/11 05:51:18;;;;;;;93.72;37.08;;;;;;;16.08;43.44;92499.53;4997284;28;20049;-90
2023/12/11 05:53:44;;;;;;;85.38;33.92;;;;;;;16.06;43.12;92506.75;4995975;28;20049;-90
2023/12/11 05:56:09;;;;;;;88.25;37.33;;;;;;;16.10;43.11;92513.41;4959413;28;21527;-90
2023/12/11 05:58:35;;;;;;;114.80;42.65;;;;;;;16.16;43.02;92504.41;4931604;28;21152;-88
2023/12/11 06:01:00;;;;;;;101.47;40.92;;;;;;;16.15;42.89;92503.66;4974677;28;20131;-90
2023/12/11 06:03:26;;;;;;;109.80;41.00;;;;;;;16.21;43.20;92498.16;4973293;28;20034;-90
2023/12/11 06:05:57;;;;;;;94.97;39.67;;;;;;;16.12;43.48;92491.06;4947870;28;20053;-89
2023/12/11 06:08:24;;;;;;;150.75;47.72;;;;;;;16.19;43.04;92471.41;4898154;28;20130;-89
2023/12/11 06:10:50;;;;;;;132.13;42.47;;;;;;;16.14;43.69;92474.94;4902960;28;20043;-89
2023/12/11 06:13:15;;;;;;;96.25;42.42;;;;;;;16.27;43.31;92464.06;4900012;28;20083;-89
2023/12/11 06:15:41;;;;;;;110.20;45.83;;;;;;;16.23;43.19;92457.47;4886481;28;20047;-91
2023/12/11 06:18:07;;;;;;;127.75;47.63;;;;;;;16.27;43.30;92460.59;4889561;28;20095;-88
2023/12/11 06:20:33;;;;;;;131.88;49.80;;;;;;;16.28;43.25;92451.91;4935297;28;20060;-87
2023/12/11 06:22:58;;;;;;;140.68;55.92;;;;;;;16.31;43.21;92450.88;4959243;28;20527;-91
2023/12/11 06:25:23;;;;;;;131.57;54.83;;;;;;;16.31;43.18;92450.88;4936766;28;20088;-89
2023/12/11 06:27:49;;;;;;;147.63;63.92;;;;;;;16.27;43.41;92453.16;4936020;28;20592;-89
2023/12/11 06:30:14;;;;;;;130.07;52.50;;;;;;;16.31;43.21;92463.75;4940640;28;20132;-87
2023/12/11 06:32:40;;;;;;;158.52;65.75;;;;;;;16.32;43.41;92455.06;4939406;28;20623;-88
2023/12/11 06:35:06;;;;;;;131.23;61.30;;;;;;;16.45;43.32;92441.44;4984059;28;20092;-86
2023/12/11 06:37:31;;;;;;;127.15;57.88;;;;;;;16.47;42.75;92443.66;4983486;28;20045;-90
2023/12/11 06:40:06;;;;;;;124.60;55.88;;;;;;;16.44;42.99;92445.47;4916788;28;21065;-87
2023/12/11 06:42:34;;;;;;;115.32;55.13;;;;;;;16.53;43.01;92446.31;4946926;28;20046;-88
2023/12/11 06:45:00;;;;;;;124.05;57.40;;;;;;;16.46;42.82;92432.00;4951924;28;21094;-91
2023/12/11 06:47:25;;;;;;;139.05;61.97;;;;;;;16.43;42.84;92440.53;4923553;28;20042;-92
2023/12/11 06:49:50;;;;;;;135.60;65.75;;;;;;;16.52;42.80;92431.94;4921016;28;20085;-92
2023/12/11 06:52:16;;;;;;;136.18;68.32;;;;;;;16.55;42.89;92441.06;4934926;28;20585;-90
2023/12/11 06:54:43;;;;;;;137.20;67.22;;;;;;;16.60;42.71;92434.78;4941355;28;20103;-90
2023/12/11 06:57:08;;;;;;;173.50;74.95;;;;;;;16.57;42.70;92449.47;4940243;28;20045;-89
2023/12/11 06:59:34;;;;;;;149.13;66.97;;;;;;;16.60;42.91;92448.44;4962530;28;20041;-89
2023/12/11 07:01:59;;;;;;;154.82;73.55;;;;;;;16.63;43.34;92458.28;4960006;28;20033;-89
2023/12/11 07:04:26;;;;;;;123.63;60.50;;;;;;;16.63;42.82;92463.75;4971289;28;20163;-90
2023/12/11 07:06:51;;;;;;;131.38;69.32;;;;;;;16.68;42.90;92466.41;4979183;28;20051;-90
2023/12/11 07:09:17;;;;;;;116.75;58.67;;;;;;;16.67;42.90;92461.50;4953722;28;20033;-87
2023/12/11 07:11:44;;;;;;;117.32;60.75;;;;;;;16.68;42.77;92452.00;4995065;28;20675;-91
2023/12/11 07:14:09;;;;;;;130.15;63.53;;;;;;;16.65;42.94;92451.09;5028635;28;20043;-87
2023/12/11 07:16:35;;;;;;;137.88;61.92;;;;;;;16.67;43.21;92445.81;5009370;28;20600;-89
2023/12/11 07:19:02;;;;;;;114.85;59.45;;;;;;;16.66;42.94;92449.84;4992651;28;20115;-91
2023/12/11 07:21:28;;;;;;;136.65;69.53;;;;;;;16.73;42.89;92457.38;4996669;28;20130;-89
2023/12/11 07:23:53;;;;;;;139.70;71.57;;;;;;;16.58;43.31;92459.13;5005409;28;20042;-88
2023/12/11 07:26:20;;;;;;;173.75;91.40;;;;;;;16.67;42.80;92462.19;5013527;28;20032;-91
2023/12/11 07:28:45;;;;;;;179.82;90.07;;;;;;;16.62;43.24;92457.56;4997311;28;20024;-91
2023/12/11 07:31:11;;;;;;;140.50;73.32;;;;;;;16.61;43.05;92458.81;5017789;28;20989;-93
2023/12/11 07:33:37;;;;;;;144.20;69.82;;;;;;;16.67;42.99;92453.31;4989616;28;20044;-90
2023/12/11 07:36:04;;;;;;;128.50;64.22;;;;;;;16.67;43.40;92445.81;5012790;28;20109;-91
2023/12/11 07:38:30;;;;;;;116.03;63.63;;;;;;;16.67;43.33;92448.56;5021878;28;20059;-90
2023/12/11 07:40:56;;;;;;;132.18;68.80;;;;;;;16.64;43.00;92454.34;5017670;28;20853;-89
2023/12/11 07:43:22;;;;;;;105.47;55.58;;;;;;;16.70;43.05;92444.03;5021817;28;20071;-90
2023/12/11 07:45:47;;;;;;;107.63;59.25;;;;;;;16.75;43.20;92430.31;4983613;28;20836;-88
2023/12/11 07:48:13;;;;;;;141.68;68.72;;;;;;;16.66;42.79;92432.72;4988481;28;20064;-90
2023/12/11 07:50:39;;;;;;;135.80;69.00;;;;;;;16.72;43.09;92436.81;4986883;28;20036;-89
2023/12/11 07:53:05;;;;;;;142.32;66.72;;;;;;;16.64;43.36;92435.97;4988325;28;20040;-89
2023/12/11 07:55:30;;;;;;;138.88;70.20;;;;;;;16.72;43.28;92431.34;4984246;28;20036;-91
2023/12/11 07:57:56;;;;;;;160.77;74.18;;;;;;;16.70;43.20;92430.41;4973089;28;20060;-90
2023/12/11 08:00:21;;;;;;;173.35;84.22;;;;;;;16.68;43.57;92427.47;4996203;28;20151;-89
2023/12/11 08:02:48;;;;;;;148.73;70.75;;;;;;;16.53;43.40;92419.03;4969078;28;20047;-91
2023/12/11 08:05:23;;;;;;;147.48;69.22;;;;;;;16.59;43.79;92414.22;4955276;28;20046;-93
2023/12/11 08:07:49;;;;;;;158.82;74.75;;;;;;;16.66;43.78;92406.19;4963886;28;20169;-90
2023/12/11 08:10:16;;;;;;;134.55;67.65;;;;;;;16.67;43.37;92404.19;4950656;28;20082;-91
2023/12/11 08:12:42;;;;;;;193.48;91.70;;;;;;;16.72;43.33;92403.31;4927470;28;20166;-90
2023/12/11 08:15:08;;;;;;;232.05;102.32;;;;;;;16.79;43.34;92398.00;4965662;28;20045;-90
2023/12/11 08:17:33;;;;;;;223.95;107.70;;;;;;;16.81;43.23;92397.47;4963809;28;20037;-89
2023/12/11 08:20:09;;;;;;;251.40;118.63;;;;;;;16.78;43.19;92409.44;4998597;28;20876;-89
2023/12/11 08:22:36;;;;;;;244.43;117.28;;;;;;;16.79;43.66;92399.97;4975776;28;20093;-92
2023/12/11 08:25:01;;;;;;;231.68;111.28;;;;;;;16.77;43.27;92386.84;4988403;28;20040;-92
2023/12/11 08:27:27;;;;;;;233.65;102.07;;;;;;;16.77;43.52;92384.13;4952763;28;20675;-88
2023/12/11 08:29:52;;;;;;;225.82;98.57;;;;;;;16.79;43.72;92380.88;4990398;28;20335;-89
2023/12/11 08:32:18;;;;;;;240.23;105.20;;;;;;;16.77;43.35;92367.03;4966336;28;20048;-91
2023/12/11 08:34:44;;;;;;;230.90;106.93;;;;;;;16.79;43.72;92381.63;4977503;28;20782;-89
2023/12/11 08:37:10;;;;;;;244.65;111.05;;;;;;;16.79;43.34;92367.97;5006391;28;20167;-91
2023/12/11 08:39:38;;;;;;;232.85;118.85;;;;;;;16.76;43.99;92374.47;4980731;28;20581;-93
2023/12/11 08:42:04;;;;;;;252.68;119.20;;;;;;;16.84;43.37;92369.13;4977361;28;20040;-92
2023/12/11 08:44:32;;;;;;;242.35;122.38;;;;;;;16.83;43.57;92364.94;5006947;28;20116;-93
2023/12/11 08:46:57;;;;;;;262.52;130.70;;;;;;;16.84;43.85;92366.41;5020541;28;20045;-91
2023/12/11 08:49:23;;;;;;;278.23;129.02;;;;;;;16.76;43.56;92363.56;4980872;28;20078;-93
2023/12/11 08:51:53;;;;;;;235.50;121.72;;;;;;;16.89;43.74;92360.06;4984885;28;20032;-93
2023/12/11 08:54:20;;;;;;;143.20;68.90;;;;;;;16.83;43.33;92361.47;4991911;28;20048;-92
2023/12/11 08:56:55;;;;;;;116.00;48.75;;;;;;;16.60;43.81;92356.41;5007975;28;20217;-92
2023/12/11 08:59:21;;;;;;;96.55;42.20;;;;;;;16.37;44.00;92363.50;5023243;28;20038;-89
2023/12/11 09:01:48;;;;;;;95.72;39.92;;;;;;;16.36;44.01;92376.41;5041217;28;20064;-90
2023/12/11 09:04:14;;;;;;;117.97;43.47;;;;;;;16.40;44.56;92385.03;4998858;28;20967;-92
2023/12/11 09:06:40;;;;;;;133.68;52.47;;;;;;;16.52;44.42;92371.16;5011892;22;20474;-92
2023/12/11 09:09:06;;;;;;;199.15;83.22;;;;;;;16.54;44.88;92385.75;5073174;27;20901;-91
2023/12/11 09:11:33;;;;;;;216.32;93.45;;;;;;;16.58;44.46;92386.19;5026520;28;20096;-91
2023/12/11 09:13:59;;;;;;;209.43;90.43;;;;;;;16.50;44.09;92384.59;4999241;28;20936;-91
2023/12/11 09:16:25;;;;;;;215.90;92.47;;;;;;;16.57;44.40;92392.16;5010870;28;20875;-92
2023/12/11 09:18:57;;;;;;;194.25;86.18;;;;;;;16.57;43.99;92379.25;5028503;28;20743;-92
2023/12/11 09:21:24;;;;;;;206.70;90.85;;;;;;;16.72;43.75;92370.56;5032718;28;20031;-90
2023/12/11 09:23:52;;;;;;;178.05;82.43;;;;;;;16.73;43.91;92366.59;5047403;28;20147;-90
2023/12/11 09:26:25;;;;;;;152.25;78.10;;;;;;;16.68;44.88;92370.16;5029261;28;20036;-91
2023/12/11 09:28:51;;;;;;;171.88;78.60;;;;;;;16.70;45.00;92370.38;5062632;28;20087;-90
2023/12/11 09:31:18;;;;;;;181.25;84.57;;;;;;;16.68;43.83;92370.88;5026064;28;20404;-88
2023/12/11 09:33:45;;;;;;;179.50;83.57;;;;;;;16.66;44.08;92380.88;5055575;28;20047;-92
2023/12/11 09:36:11;;;;;;;173.05;88.43;;;;;;;16.74;44.55;92376.97;5024512;28;20188;-91
2023/12/11 09:38:37;;;;;;;185.68;86.35;;;;;;;16.61;44.32;92371.50;5020905;28;20398;-91
2023/12/11 09:41:04;;;;;;;193.25;94.63;;;;;;;16.60;44.77;92364.56;5023062;28;20782;-92
2023/12/11 09:43:29;;;;;;;230.70;115.53;;;;;;;16.72;44.09;92359.66;5027993;28;20044;-91
2023/12/11 09:45:55;;;;;;;189.25;96.20;;;;;;;16.72;44.47;92357.66;5013455;28;20647;-90
2023/12/11 09:48:21;;;;;;;207.18;110.50;;;;;;;16.69;44.63;92344.34;5033323;28;20036;-93
2023/12/11 09:50:47;;;;;;;220.75;104.55;;;;;;;16.74;43.68;92338.03;5006543;28;20087;-88
2023/12/11 09:53:13;;;;;;;184.27;94.53;;;;;;;16.63;44.41;92324.59;4993929;28;20575;-91
2023/12/11 09:58:09;;;;;;;180.65;92.43;;;;;;;16.65;44.46;92322.84;5081565;28;20044;-92
2023/12/11 10:00:36;;;;;;;190.88;95.72;;;;;;;16.70;44.73;92324.72;5025572;28;20051;-93
2023/12/11 10:03:05;;;;;;;167.73;90.45;;;;;;;16.75;44.82;92323.13;5060646;28;20059;-92
2023/12/11 10:05:33;;;;;;;194.80;102.68;;;;;;;16.76;45.05;92313.69;5034406;28;20043;-90
2023/12/11 10:08:00;;;;;;;196.40;105.47;;;;;;;16.67;44.55;92309.38;5016909;28;20032;-91
2023/12/11 10:10:33;;;;;;;185.48;100.30;;;;;;;16.62;44.62;92295.84;5012066;28;20113;-92
2023/12/11 10:13:03;;;;;;;219.82;115.15;;;;;;;16.70;44.97;92311.06;5019547;28;20040;-91
2023/12/11 10:15:31;;;;;;;199.00;102.68;;;;;;;16.67;44.27;92327.78;4998700;28;20113;-87
2023/12/11 10:18:07;;;;;;;190.73;101.03;;;;;;;16.69;45.04;92330.69;4995838;28;20051;-89
2023/12/11 10:20:32;;;;;;;145.82;73.07;;;;;;;16.69;44.65;92330.69;5002506;28;20038;-86
2023/12/11 10:22:58;;;;;;;174.02;87.50;;;;;;;16.75;44.86;92325.88;4991041;28;20044;-88
2023/12/11 10:25:25;;;;;;;180.65;94.13;;;;;;;16.73;44.84;92315.47;5014068;28;20447;-88
2023/12/11 10:27:51;;;;;;;181.85;92.05;;;;;;;16.79;45.20;92315.38;5002233;28;20053;-90
2023/12/11 10:30:19;;;;;;;180.05;90.90;;;;;;;16.86;44.44;92319.47;5004475;28;20027;-92
2023/12/11 10:32:45;;;;;;;178.18;90.95;;;;;;;16.83;44.38;92301.41;5026114;28;20035;-89
2023/12/11 10:35:34;;;;;;;203.90;87.50;;;;;;;16.84;44.44;92303.63;5002789;28;20043;-89
2023/12/11 10:38:01;;;;;;;201.85;91.18;;;;;;;16.85;44.33;92316.00;5044474;28;20122;-90
2023/12/11 10:40:40;;;;;;;183.25;94.72;;;;;;;16.81;44.39;92318.31;4975606;28;20136;-89
2023/12/11 10:43:06;;;;;;;222.32;110.03;;;;;;;16.83;44.39;92298.69;4959168;28;20053;-92
2023/12/11 10:45:34;;;;;;;234.55;115.82;;;;;;;16.86;45.16;92292.19;4967637;28;20065;-90
2023/12/11 10:48:03;;;;;;;247.68;117.35;;;;;;;16.95;44.98;92275.34;4956002;28;20064;-91
2023/12/11 10:50:48;;;;;;;232.80;118.13;;;;;;;17.00;44.48;92274.50;4976838;28;20065;-88
2023/12/11 10:53:14;;;;;;;237.23;112.80;;;;;;;16.96;44.91;92280.28;4916592;28;20087;-88
2023/12/11 10:55:40;;;;;;;229.80;115.70;;;;;;;16.91;45.31;92280.38;4911397;28;20128;-87
2023/12/11 10:58:08;;;;;;;250.43;128.18;;;;;;;16.87;44.96;92280.72;4914877;28;20050;-87
2023/12/11 11:00:34;;;;;;;270.67;141.52;;;;;;;16.89;44.32;92258.38;4941273;28;20034;-86
2023/12/11 11:03:00;;;;;;;247.63;128.95;;;;;;;16.94;44.58;92250.03;4929845;28;20878;-85
2023/12/11 11:05:26;;;;;;;255.10;134.35;;;;;;;16.92;45.25;92273.66;4904844;28;20086;-86
2023/12/11 11:08:03;;;;;;;231.38;118.35;;;;;;;16.90;45.11;92279.66;4912818;28;20549;-87
2023/12/11 11:10:39;;;;;;;226.18;120.10;;;;;;;16.83;45.17;92268.66;4930115;28;21296;-87
2023/12/11 11:13:11;;;;;;;214.82;117.57;;;;;;;16.88;45.16;92276.00;4917515;28;21172;-85
2023/12/11 11:15:36;;;;;;;205.27;113.72;;;;;;;16.94;45.26;92315.56;4917619;28;20110;-86
2023/12/11 11:18:03;;;;;;;188.85;111.07;;;;;;;16.95;45.02;92322.50;4909539;28;20046;-86